Time;durP1;ratioP1;P1;durP2;ratioP2;P2;SDS_P1;SDS_P2;PMS_P1;PMS_P2;Temp;Humidity;BMP_temperature;BMP_pressure;BME280_temperature;BME280_humidity;BME280_pressure;Samples;Min_cycle;Max_cycle;Signal;HPM_P1;HPM_P2
2021/08/12 00:01:31;;;;;;;7.87;4.87;;;;;;;26.69;60.72;101316.19;144992;654;6002;-79
2021/08/12 00:03:57;;;;;;;7.82;5.10;;;;;;;26.74;60.60;101324.91;144992;572;6002;-78
2021/08/12 00:06:23;;;;;;;9.25;5.55;;;;;;;26.66;60.72;101322.50;144992;760;6002;-79
2021/08/12 00:08:51;;;;;;;8.20;4.43;;;;;;;26.71;60.71;101311.69;144992;609;6002;-79
2021/08/12 00:11:17;;;;;;;8.48;4.93;;;;;;;26.84;59.53;101317.56;144992;597;6002;-79
2021/08/12 00:13:43;;;;;;;10.30;5.22;;;;;;;26.89;59.85;101324.47;144992;593;6002;-79
2021/08/12 00:16:10;;;;;;;7.40;4.72;;;;;;;26.88;60.22;101319.19;144992;687;6002;-79
2021/08/12 00:18:36;;;;;;;9.85;4.62;;;;;;;26.78;60.62;101319.44;144992;570;6002;-79
2021/08/12 00:21:06;;;;;;;9.27;4.90;;;;;;;26.83;61.10;101319.31;144992;589;6002;-80
2021/08/12 00:23:32;;;;;;;9.65;4.80;;;;;;;26.77;60.42;101312.41;144992;690;6002;-79
2021/08/12 00:25:59;;;;;;;13.68;5.40;;;;;;;26.70;62.08;101320.59;144992;634;6002;-79
2021/08/12 00:28:25;;;;;;;9.30;5.03;;;;;;;26.79;59.73;101307.91;144992;649;6002;-80
2021/08/12 00:30:52;;;;;;;9.68;5.22;;;;;;;26.86;61.22;101315.72;144992;585;6002;-79
2021/08/12 00:33:18;;;;;;;8.88;5.05;;;;;;;26.97;60.91;101306.47;144992;592;6002;-81
2021/08/12 00:35:45;;;;;;;7.00;4.82;;;;;;;27.06;59.96;101309.78;144992;614;6002;-80
2021/08/12 00:38:11;;;;;;;9.18;5.25;;;;;;;27.21;58.82;101313.81;144992;579;6002;-79
2021/08/12 00:40:38;;;;;;;9.20;5.00;;;;;;;27.33;58.23;101316.13;144992;599;6002;-79
2021/08/12 00:43:05;;;;;;;9.45;4.90;;;;;;;27.41;58.73;101319.41;144992;655;6002;-82
2021/08/12 00:45:32;;;;;;;8.55;5.15;;;;;;;27.42;57.90;101315.81;144992;715;6002;-77
2021/08/12 00:48:08;;;;;;;8.77;5.15;;;;;;;27.49;58.12;101320.06;144992;581;6002;-82
2021/08/12 00:51:15;;;;;;;;;;;;;;;;;;;;;
2021/08/12 00:53:44;;;;;;;8.02;5.00;;;;;;;27.60;58.37;101318.81;144992;577;6004;-79
2021/08/12 00:56:10;;;;;;;6.97;5.07;;;;;;;27.72;57.78;101313.09;144992;708;6004;-80
2021/08/12 00:58:37;;;;;;;11.57;5.30;;;;;;;27.73;58.43;101313.97;144992;609;6004;-79
2021/08/12 01:01:03;;;;;;;9.43;5.15;;;;;;;27.49;58.73;101313.84;144992;580;6004;-78
2021/08/12 01:03:30;;;;;;;9.27;5.80;;;;;;;27.36;59.53;101315.13;144992;632;6004;-80
2021/08/12 01:05:59;;;;;;;10.10;5.50;;;;;;;27.29;59.52;101304.63;144992;579;6004;-80
2021/08/12 01:08:51;;;;;;;9.65;5.55;;;;;;;27.24;59.31;101300.38;144991;571;6000;-81
2021/08/12 01:11:43;;;;;;;7.97;5.50;;;;;;;27.30;58.41;101301.09;144991;571;6002;-79
2021/08/12 01:14:37;;;;;;;10.15;5.60;;;;;;;27.37;58.54;101296.44;144992;581;6004;-80
2021/08/12 01:17:14;;;;;;;13.57;5.50;;;;;;;27.35;58.14;101294.75;144992;591;6004;-80
2021/08/12 01:20:27;;;;;;;10.32;6.03;;;;;;;27.32;58.60;101309.91;144992;579;6004;-79
2021/08/12 01:22:56;;;;;;;8.45;5.57;;;;;;;27.33;58.08;101311.66;144992;592;6004;-80
2021/08/12 01:25:29;;;;;;;10.48;6.22;;;;;;;27.27;58.64;101305.63;144992;584;6004;-79
2021/08/12 01:28:03;;;;;;;9.10;5.82;;;;;;;27.21;58.44;101305.81;144992;650;6004;-80
2021/08/12 01:30:33;;;;;;;10.13;6.03;;;;;;;27.22;58.42;101303.09;144992;627;6004;-81
2021/08/12 01:33:28;;;;;;;8.20;5.65;;;;;;;27.26;58.38;101301.19;144992;571;6004;-79
2021/08/12 01:35:59;;;;;;;8.52;5.75;;;;;;;27.30;58.18;101308.19;144992;697;6002;-80
2021/08/12 01:38:27;;;;;;;8.10;5.95;;;;;;;27.27;59.45;101309.16;144992;738;6002;-80
2021/08/12 01:40:56;;;;;;;7.53;5.80;;;;;;;27.31;58.24;101309.94;144992;581;6002;-79
2021/08/12 01:43:24;;;;;;;7.60;5.53;;;;;;;27.31;59.08;101312.63;144992;591;6002;-78
2021/08/12 01:45:55;;;;;;;8.48;5.95;;;;;;;27.19;59.04;101307.63;144992;572;6002;-80
2021/08/12 01:48:23;;;;;;;9.32;6.15;;;;;;;27.15;58.72;101297.09;144992;578;6002;-79
2021/08/12 01:50:52;;;;;;;8.82;5.82;;;;;;;27.20;58.51;101291.59;144992;572;6002;-81
2021/08/12 01:53:22;;;;;;;7.95;6.10;;;;;;;27.11;60.44;101302.53;144992;636;6002;-79
2021/08/12 01:55:51;;;;;;;10.18;5.70;;;;;;;26.81;60.85;101302.53;144992;660;6002;-80
2021/08/12 01:58:21;;;;;;;8.20;5.87;;;;;;;26.74;60.26;101303.59;144992;575;6002;-80
2021/08/12 02:00:50;;;;;;;8.65;6.12;;;;;;;26.65;61.58;101296.75;144992;671;6002;-80
2021/08/12 02:03:18;;;;;;;8.55;6.05;;;;;;;26.56;61.34;101284.53;144992;591;6002;-79
2021/08/12 02:05:51;;;;;;;11.02;6.00;;;;;;;26.56;61.16;101281.00;144992;585;6002;-77
2021/08/12 02:08:21;;;;;;;9.27;6.07;;;;;;;26.80;60.66;101290.13;144992;733;6002;-78
2021/08/12 02:10:49;;;;;;;11.07;6.10;;;;;;;26.82;60.70;101292.72;144992;578;6002;-78
2021/08/12 02:13:16;;;;;;;9.82;5.97;;;;;;;26.67;61.45;101292.25;144992;591;6004;-80
2021/08/12 02:15:42;;;;;;;6.75;5.97;;;;;;;26.76;60.10;101280.50;144992;608;6004;-80
2021/08/12 02:18:09;;;;;;;7.65;5.60;;;;;;;26.88;59.64;101281.91;144992;646;6004;-79
2021/08/12 02:20:39;;;;;;;7.28;6.03;;;;;;;26.88;59.16;101279.25;144992;569;6004;-79
2021/08/12 02:23:36;;;;;;;9.07;5.70;;;;;;;26.96;59.07;101285.22;144992;699;6004;-80
2021/08/12 02:26:09;;;;;;;11.35;5.70;;;;;;;27.05;58.57;101276.94;144992;565;6002;-80
2021/08/12 02:28:37;;;;;;;10.60;5.90;;;;;;;27.08;58.56;101274.19;144992;573;6002;-80
2021/08/12 02:31:05;;;;;;;10.30;6.15;;;;;;;27.15;58.23;101275.75;144992;593;6002;-80
2021/08/12 02:33:37;;;;;;;8.20;5.70;;;;;;;27.14;58.96;101273.16;144992;658;6002;-79
2021/08/12 02:36:06;;;;;;;5.93;5.00;;;;;;;27.15;58.58;101265.09;144992;611;6002;-80
2021/08/12 02:38:36;;;;;;;7.35;5.12;;;;;;;27.15;58.22;101272.22;144992;569;6002;-80
2021/08/12 02:41:04;;;;;;;8.73;5.40;;;;;;;27.21;57.91;101273.81;144991;641;6002;-81
2021/08/12 02:43:35;;;;;;;8.15;5.68;;;;;;;27.20;58.90;101272.06;144992;598;6002;-80
2021/08/12 02:46:04;;;;;;;9.13;5.55;;;;;;;27.18;58.05;101268.59;144992;607;6002;-80
2021/08/12 02:48:33;;;;;;;12.77;6.12;;;;;;;27.17;58.26;101277.50;144992;569;6002;-79
2021/08/12 02:51:00;;;;;;;7.82;5.50;;;;;;;27.06;58.87;101268.03;144992;563;6002;-79
2021/08/12 02:53:29;;;;;;;8.30;5.95;;;;;;;27.11;58.21;101266.09;144992;575;6002;-79
2021/08/12 02:55:57;;;;;;;7.95;5.62;;;;;;;27.16;58.23;101263.31;144992;717;6002;-79
2021/08/12 02:58:30;;;;;;;7.85;6.43;;;;;;;27.09;59.13;101269.72;144992;731;6002;-79
2021/08/12 03:00:57;;;;;;;9.30;6.12;;;;;;;27.13;58.08;101279.38;144992;583;6002;-80
2021/08/12 03:03:25;;;;;;;11.05;6.35;;;;;;;27.17;58.00;101280.16;144992;597;6002;-79
2021/08/12 03:05:53;;;;;;;8.00;5.90;;;;;;;27.15;58.23;101278.44;144992;585;6002;-79
2021/08/12 03:08:21;;;;;;;14.05;6.50;;;;;;;27.21;58.08;101288.00;144992;569;6002;-80
2021/08/12 03:10:47;;;;;;;10.35;6.10;;;;;;;27.24;57.80;101289.72;144991;722;6002;-79
2021/08/12 03:13:16;;;;;;;9.57;6.12;;;;;;;27.25;57.59;101295.00;144992;593;6002;-80
2021/08/12 03:15:43;;;;;;;11.07;6.47;;;;;;;27.30;57.55;101293.09;144992;755;6002;-78
2021/08/12 03:18:11;;;;;;;7.35;6.05;;;;;;;27.36;57.35;101296.47;144992;579;6002;-79
2021/08/12 03:20:41;;;;;;;11.82;6.30;;;;;;;27.32;57.86;101301.91;144992;579;6002;-80
2021/08/12 03:23:07;;;;;;;9.15;6.22;;;;;;;27.30;57.49;101302.88;144992;563;6002;-79
2021/08/12 03:25:33;;;;;;;9.52;6.40;;;;;;;27.29;57.85;101298.44;144992;619;6002;-80
2021/08/12 03:28:00;;;;;;;12.00;6.10;;;;;;;27.27;57.57;101300.28;144992;583;6002;-79
2021/08/12 03:30:27;;;;;;;9.65;6.30;;;;;;;27.27;57.76;101298.50;144992;597;6002;-79
2021/08/12 03:32:53;;;;;;;10.68;6.57;;;;;;;27.25;57.88;101303.00;144992;618;6002;-82
2021/08/12 03:35:20;;;;;;;10.55;6.43;;;;;;;27.23;57.97;101291.50;144992;700;6002;-79
2021/08/12 03:37:49;;;;;;;12.02;6.95;;;;;;;27.27;57.66;101297.63;144992;642;6002;-79
2021/08/12 03:40:15;;;;;;;9.75;6.50;;;;;;;27.26;59.15;101295.88;144992;582;6002;-80
2021/08/12 03:42:42;;;;;;;9.88;6.65;;;;;;;27.10;59.08;101296.31;144992;695;6002;-80
2021/08/12 03:45:09;;;;;;;13.98;6.80;;;;;;;27.05;59.20;101292.94;144991;573;6002;-80
2021/08/12 03:47:35;;;;;;;11.23;7.53;;;;;;;26.99;58.90;101295.78;144992;835;6002;-79
2021/08/12 03:50:02;;;;;;;10.30;6.87;;;;;;;27.03;58.76;101312.53;144992;588;6002;-79
2021/08/12 03:52:29;;;;;;;13.20;6.53;;;;;;;27.01;58.12;101314.38;144992;575;6002;-80
2021/08/12 03:54:55;;;;;;;11.95;6.72;;;;;;;27.06;58.32;101320.44;144992;596;6002;-78
2021/08/12 03:57:21;;;;;;;10.60;6.25;;;;;;;27.08;58.87;101324.81;144992;645;6002;-79
2021/08/12 03:59:48;;;;;;;7.12;5.82;;;;;;;27.12;58.38;101331.81;144992;583;6002;-80
2021/08/12 04:02:17;;;;;;;9.50;6.32;;;;;;;27.13;58.17;101330.88;144992;586;6002;-80
2021/08/12 04:04:44;;;;;;;11.45;6.60;;;;;;;27.06;58.67;101336.44;144992;575;6002;-80
2021/08/12 04:07:10;;;;;;;13.27;6.25;;;;;;;27.12;58.39;101338.91;144992;658;6002;-80
2021/08/12 04:09:37;;;;;;;10.48;7.03;;;;;;;27.09;58.96;101337.22;144992;740;6003;-81
2021/08/12 04:12:04;;;;;;;12.85;7.07;;;;;;;27.10;58.56;101341.63;144992;597;6002;-80
2021/08/12 04:14:30;;;;;;;10.00;6.78;;;;;;;27.10;58.35;101348.75;144992;648;6002;-79
2021/08/12 04:16:57;;;;;;;8.65;5.97;;;;;;;27.11;58.17;101355.84;144992;574;6002;-79
2021/08/12 04:19:25;;;;;;;9.85;6.10;;;;;;;27.16;58.29;101351.25;144992;564;6002;-80
2021/08/12 04:21:51;;;;;;;12.23;6.15;;;;;;;27.14;58.31;101361.09;144992;600;6002;-79
2021/08/12 04:24:18;;;;;;;11.40;5.93;;;;;;;27.15;58.83;101360.13;144992;644;6002;-80
2021/08/12 04:26:44;;;;;;;11.10;6.60;;;;;;;27.20;58.07;101370.66;144992;575;6002;-80
2021/08/12 04:29:11;;;;;;;8.82;5.85;;;;;;;27.16;59.19;101356.56;144992;754;6002;-79
2021/08/12 04:31:37;;;;;;;9.70;5.95;;;;;;;27.15;58.31;101347.72;144992;572;6002;-78
2021/08/12 04:34:04;;;;;;;14.25;6.68;;;;;;;27.11;58.63;101356.69;144992;581;6002;-78
2021/08/12 04:36:31;;;;;;;8.32;6.47;;;;;;;27.23;58.21;101357.25;144991;663;6002;-80
2021/08/12 04:38:58;;;;;;;10.45;6.22;;;;;;;27.32;58.46;101351.69;144992;572;6002;-81
2021/08/12 04:41:25;;;;;;;10.57;6.25;;;;;;;27.30;58.65;101350.84;144992;582;6002;-80
2021/08/12 04:43:52;;;;;;;8.93;6.15;;;;;;;27.25;59.43;101356.31;144992;714;6002;-78
2021/08/12 04:46:20;;;;;;;9.88;5.97;;;;;;;27.34;58.63;101357.84;144992;575;6002;-79
2021/08/12 04:48:47;;;;;;;8.90;5.95;;;;;;;27.43;58.27;101362.91;144992;582;6002;-80
2021/08/12 04:51:13;;;;;;;8.40;6.03;;;;;;;27.51;58.03;101362.66;144992;714;6002;-79
2021/08/12 04:53:40;;;;;;;9.23;5.50;;;;;;;27.58;57.90;101366.00;144993;742;6002;-81
2021/08/12 04:56:07;;;;;;;9.52;5.97;;;;;;;27.67;57.78;101363.91;144993;587;6002;-79
2021/08/12 04:58:35;;;;;;;7.57;5.50;;;;;;;27.80;57.52;101363.53;144993;594;6002;-79
2021/08/12 05:01:01;;;;;;;8.18;5.80;;;;;;;27.91;57.39;101368.53;144993;590;6002;-79
2021/08/12 05:03:28;;;;;;;9.82;6.03;;;;;;;27.96;57.44;101362.13;144993;569;6002;-80
2021/08/12 05:06:01;;;;;;;9.82;5.87;;;;;;;27.88;57.46;101367.69;144993;577;6002;-79
2021/08/12 05:08:28;;;;;;;7.50;5.53;;;;;;;27.94;57.37;101379.09;144993;567;6003;-79
2021/08/12 05:10:54;;;;;;;10.45;5.93;;;;;;;27.98;57.54;101380.75;144993;614;6002;-80
2021/08/12 05:13:20;;;;;;;8.85;6.12;;;;;;;28.05;57.12;101385.00;144992;571;6002;-79
2021/08/12 05:15:47;;;;;;;10.95;7.18;;;;;;;28.10;57.01;101383.03;144993;620;6002;-79
2021/08/12 05:18:13;;;;;;;15.48;7.80;;;;;;;28.14;57.00;101389.13;144993;587;6002;-78
2021/08/12 05:20:40;;;;;;;9.75;7.40;;;;;;;27.87;57.40;101389.06;144993;594;6002;-81
2021/08/12 05:23:07;;;;;;;9.27;6.65;;;;;;;27.74;57.64;101393.94;144993;657;6002;-80
2021/08/12 05:25:33;;;;;;;10.63;6.55;;;;;;;27.79;57.50;101385.78;144992;583;6002;-81
2021/08/12 05:28:00;;;;;;;10.70;6.60;;;;;;;27.87;57.46;101395.31;144992;565;6002;-81
2021/08/12 05:30:29;;;;;;;12.15;6.87;;;;;;;27.93;57.40;101396.03;144992;569;6002;-81
2021/08/12 05:32:55;;;;;;;9.15;6.47;;;;;;;28.03;57.05;101397.50;144992;696;6002;-80
2021/08/12 05:35:23;;;;;;;10.43;6.32;;;;;;;28.06;57.05;101392.06;144992;581;6002;-80
2021/08/12 05:37:50;;;;;;;12.75;6.87;;;;;;;28.17;56.95;101408.62;144992;578;6002;-80
2021/08/12 05:40:16;;;;;;;12.93;6.45;;;;;;;28.23;56.73;101405.72;144993;739;6002;-81
2021/08/12 05:42:43;;;;;;;9.02;6.47;;;;;;;28.31;56.46;101407.28;144993;586;6002;-79
2021/08/12 05:45:10;;;;;;;11.57;6.18;;;;;;;28.40;56.24;101405.16;144993;569;6002;-80
2021/08/12 05:47:36;;;;;;;10.88;6.55;;;;;;;28.45;56.23;101409.47;144993;573;6002;-79
2021/08/12 05:50:03;;;;;;;14.02;6.70;;;;;;;28.31;56.35;101401.94;144993;577;6002;-79
2021/08/12 05:52:30;;;;;;;14.18;6.80;;;;;;;28.37;56.66;101401.72;144993;569;6002;-80
2021/08/12 05:54:56;;;;;;;11.30;6.72;;;;;;;28.37;56.79;101402.59;144993;638;6002;-81
2021/08/12 05:57:24;;;;;;;12.35;7.15;;;;;;;28.47;56.37;101413.81;144993;601;6002;-79
2021/08/12 05:59:50;;;;;;;9.23;6.75;;;;;;;28.55;56.28;101408.22;144993;595;6002;-80
2021/08/12 06:02:17;;;;;;;8.13;6.20;;;;;;;28.58;56.36;101414.34;144993;573;6002;-80
2021/08/12 06:04:43;;;;;;;10.40;6.80;;;;;;;28.69;56.55;101421.13;144993;569;6002;-80
2021/08/12 06:07:09;;;;;;;11.40;6.45;;;;;;;28.71;56.33;101413.94;144993;597;6002;-79
2021/08/12 06:09:36;;;;;;;10.25;6.80;;;;;;;28.74;55.71;101421.84;144993;599;6002;-80
2021/08/12 06:12:03;;;;;;;10.35;6.82;;;;;;;28.80;56.16;101434.13;144992;571;6002;-80
2021/08/12 06:14:29;;;;;;;8.15;6.50;;;;;;;28.87;56.39;101441.88;144993;566;6002;-78
2021/08/12 06:16:56;;;;;;;11.65;6.53;;;;;;;28.96;56.14;101424.63;144993;651;6002;-80
2021/08/12 06:19:23;;;;;;;13.05;7.28;;;;;;;29.06;56.15;101420.69;144993;571;6002;-79
2021/08/12 06:21:49;;;;;;;11.27;6.68;;;;;;;29.19;55.41;101428.28;144993;712;6002;-80
2021/08/12 06:24:15;;;;;;;13.85;8.70;;;;;;;29.22;55.54;101436.19;144993;571;6002;-80
2021/08/12 06:26:44;;;;;;;13.18;7.43;;;;;;;29.30;55.33;101435.00;144993;645;6002;-79
2021/08/12 06:29:11;;;;;;;11.93;6.68;;;;;;;29.43;55.12;101439.84;144993;727;6002;-79
2021/08/12 06:31:38;;;;;;;12.88;8.65;;;;;;;29.47;53.79;101436.16;144994;578;5002;-79
2021/08/12 06:34:05;;;;;;;11.60;7.28;;;;;;;29.55;55.46;101449.22;144994;606;5002;-79
2021/08/12 06:36:32;;;;;;;10.98;7.15;;;;;;;29.63;54.64;101449.81;144994;585;5002;-79
2021/08/12 06:38:59;;;;;;;7.53;5.90;;;;;;;29.72;54.75;101440.56;144994;603;5002;-80
2021/08/12 06:41:42;;;;;;;9.23;6.18;;;;;;;29.85;54.91;101450.72;144994;572;5002;-79
2021/08/12 06:44:21;;;;;;;7.60;5.90;;;;;;;29.88;54.82;101447.06;144994;592;5002;-80
2021/08/12 06:46:48;;;;;;;7.07;5.78;;;;;;;29.92;52.25;101431.75;144994;587;5002;-80
2021/08/12 06:49:14;;;;;;;9.27;6.37;;;;;;;30.01;54.56;101439.44;144994;578;5002;-80
2021/08/12 06:51:40;;;;;;;8.52;5.97;;;;;;;30.11;53.66;101442.59;144994;573;5002;-80
2021/08/12 06:54:07;;;;;;;11.65;6.35;;;;;;;30.17;54.00;101453.06;144994;644;5002;-78
2021/08/12 06:56:34;;;;;;;8.40;5.90;;;;;;;29.94;53.77;101451.28;144994;588;5002;-80
2021/08/12 06:59:00;;;;;;;11.77;6.70;;;;;;;29.99;54.02;101452.88;144993;605;5002;-82
2021/08/12 07:01:27;;;;;;;10.10;5.62;;;;;;;30.13;54.33;101462.12;144994;614;5002;-80
2021/08/12 07:03:54;;;;;;;11.93;6.28;;;;;;;30.25;53.94;101458.97;144994;570;5002;-80
2021/08/12 07:06:22;;;;;;;10.75;6.90;;;;;;;30.40;53.67;101462.88;144994;584;5002;-77
2021/08/12 07:08:53;;;;;;;17.73;6.93;;;;;;;30.45;53.66;101466.22;144994;564;5002;-78
2021/08/12 07:11:20;;;;;;;11.48;6.53;;;;;;;30.48;53.32;101468.75;144994;579;5002;-79
2021/08/12 07:13:49;;;;;;;9.15;6.78;;;;;;;30.61;53.29;101471.78;144994;593;5002;-80
2021/08/12 07:16:16;;;;;;;9.18;6.70;;;;;;;30.71;52.66;101480.31;144994;591;5002;-80
2021/08/12 07:18:42;;;;;;;13.57;6.65;;;;;;;30.64;52.70;101485.06;144994;620;5002;-80
2021/08/12 07:21:22;;;;;;;9.45;6.62;;;;;;;30.73;52.51;101479.31;144994;627;5002;-79
2021/08/12 07:23:49;;;;;;;11.12;6.43;;;;;;;30.71;52.66;101480.31;144994;586;5002;-79
2021/08/12 07:26:16;;;;;;;12.63;6.90;;;;;;;30.77;52.79;101481.84;144994;572;5002;-79
2021/08/12 07:28:46;;;;;;;9.75;6.22;;;;;;;30.77;51.14;101490.75;144994;572;5002;-80
2021/08/12 07:31:16;;;;;;;8.20;5.45;;;;;;;30.84;51.60;101492.22;144994;562;5002;-78
2021/08/12 07:33:42;;;;;;;9.85;6.20;;;;;;;30.80;52.14;101487.97;144994;569;5002;-79
2021/08/12 07:36:09;;;;;;;14.27;7.20;;;;;;;30.72;52.22;101488.28;144994;640;5002;-79
2021/08/12 07:38:35;;;;;;;8.70;5.70;;;;;;;30.80;51.42;101489.75;144994;596;5002;-79
2021/08/12 07:41:02;;;;;;;10.52;5.62;;;;;;;30.79;51.71;101496.91;144994;574;5002;-79
2021/08/12 07:43:29;;;;;;;9.10;5.90;;;;;;;30.87;51.58;101497.47;144994;607;5002;-79
2021/08/12 07:45:56;;;;;;;8.35;5.70;;;;;;;30.93;50.93;101505.25;144994;581;5002;-78
2021/08/12 07:48:22;;;;;;;7.93;6.25;;;;;;;30.82;50.06;101502.16;144994;578;5002;-79
2021/08/12 07:50:49;;;;;;;8.27;6.10;;;;;;;30.87;50.02;101508.19;144994;573;5002;-78
2021/08/12 07:53:16;;;;;;;10.45;6.28;;;;;;;30.64;50.53;101516.31;144994;570;5002;-79
2021/08/12 07:55:43;;;;;;;10.93;6.60;;;;;;;30.71;50.57;101524.03;144994;586;5002;-80
2021/08/12 07:58:09;;;;;;;9.80;6.82;;;;;;;30.70;51.57;101529.47;144994;649;5002;-79
2021/08/12 08:00:37;;;;;;;9.07;5.93;;;;;;;30.91;50.07;101535.75;144994;655;5002;-81
2021/08/12 08:03:04;;;;;;;11.90;6.55;;;;;;;30.75;50.77;101541.75;144994;595;5002;-81
2021/08/12 08:05:30;;;;;;;11.60;7.43;;;;;;;30.71;50.70;101545.47;144994;570;5002;-80
2021/08/12 08:07:57;;;;;;;10.70;6.55;;;;;;;30.38;52.52;101556.66;144994;604;5002;-79
2021/08/12 08:10:25;;;;;;;11.30;7.62;;;;;;;30.47;51.81;101560.75;144994;623;5002;-80
2021/08/12 08:12:54;;;;;;;10.40;7.40;;;;;;;30.55;51.77;101550.59;144994;590;5002;-81
2021/08/12 08:15:21;;;;;;;11.12;7.05;;;;;;;30.41;53.22;101560.16;144994;606;5002;-80
2021/08/12 08:17:48;;;;;;;8.30;6.22;;;;;;;30.33;53.85;101555.06;144994;564;5002;-82
2021/08/12 08:20:15;;;;;;;9.32;6.18;;;;;;;30.37;53.25;101565.59;144994;616;5002;-81
2021/08/12 08:22:42;;;;;;;6.45;5.90;;;;;;;30.01;54.20;101558.06;144994;610;5003;-80
2021/08/12 08:25:10;;;;;;;7.57;6.20;;;;;;;30.11;53.95;101555.91;144994;588;5002;-81
2021/08/12 08:27:36;;;;;;;9.38;5.85;;;;;;;30.07;53.96;101559.66;144994;590;5002;-80
2021/08/12 08:30:04;;;;;;;8.27;6.28;;;;;;;30.14;54.44;101560.28;144994;592;5003;-80
2021/08/12 08:32:34;;;;;;;9.73;6.35;;;;;;;29.98;54.59;101555.50;144994;591;5002;-79
2021/08/12 08:35:00;;;;;;;7.75;5.97;;;;;;;30.38;53.25;101554.00;144994;601;5002;-80
2021/08/12 08:37:27;;;;;;;6.97;5.93;;;;;;;30.27;53.58;101564.19;144994;644;5002;-79
2021/08/12 08:39:53;;;;;;;6.65;5.87;;;;;;;30.41;54.08;101565.50;144994;571;5002;-80
2021/08/12 08:42:20;;;;;;;6.95;6.00;;;;;;;30.44;53.44;101557.34;144994;598;5002;-78
2021/08/12 08:44:50;;;;;;;7.37;5.45;;;;;;;30.51;53.46;101550.78;144994;626;5002;-80
2021/08/12 08:47:18;;;;;;;9.18;5.90;;;;;;;30.55;53.11;101547.94;144994;612;5002;-80
2021/08/12 08:49:47;;;;;;;9.40;5.37;;;;;;;30.69;52.91;101552.72;144994;589;5002;-79
2021/08/12 08:52:14;;;;;;;8.10;5.50;;;;;;;30.80;52.56;101548.69;144994;578;5002;-79
2021/08/12 08:54:43;;;;;;;9.57;5.80;;;;;;;30.87;51.96;101545.69;144994;586;5002;-80
2021/08/12 08:57:09;;;;;;;7.62;5.53;;;;;;;30.99;51.24;101546.16;144994;569;5002;-80
2021/08/12 08:59:37;;;;;;;9.65;5.85;;;;;;;30.99;51.58;101552.41;144994;586;5002;-80
2021/08/12 09:02:05;;;;;;;8.48;5.45;;;;;;;31.13;52.30;101556.28;144994;574;5002;-80
2021/08/12 09:04:36;;;;;;;8.32;5.28;;;;;;;31.20;51.82;101550.59;144994;572;5002;-81
2021/08/12 09:07:09;;;;;;;8.25;5.68;;;;;;;31.23;50.95;101549.59;144994;579;5002;-81
2021/08/12 09:09:36;;;;;;;6.40;5.20;;;;;;;31.31;50.10;101543.88;144994;571;5002;-79
2021/08/12 09:12:04;;;;;;;7.32;5.55;;;;;;;31.32;48.07;101541.13;144993;721;5002;-80
2021/08/12 09:14:51;;;;;;;7.12;5.03;;;;;;;31.49;50.78;101539.50;144994;663;5002;-80
2021/08/12 09:17:26;;;;;;;8.88;5.87;;;;;;;31.55;49.66;101542.81;144994;587;5002;-80
2021/08/12 09:20:01;;;;;;;6.53;4.82;;;;;;;31.55;49.47;101545.50;144994;593;5002;-80
2021/08/12 09:22:29;;;;;;;8.98;5.20;;;;;;;31.56;48.98;101541.00;144994;578;5002;-80
2021/08/12 09:24:56;;;;;;;7.53;5.10;;;;;;;31.62;49.35;101538.03;144994;585;5002;-81
2021/08/12 09:27:26;;;;;;;6.07;4.97;;;;;;;31.71;47.57;101529.56;144994;715;5002;-79
2021/08/12 09:30:20;;;;;;;7.22;5.12;;;;;;;31.62;47.66;101527.28;144994;733;5003;-80
2021/08/12 09:32:50;;;;;;;8.10;4.70;;;;;;;31.83;47.22;101526.31;144994;716;5004;-79
2021/08/12 09:35:27;;;;;;;6.70;5.15;;;;;;;31.82;47.05;101524.56;144994;639;5004;-79
2021/08/12 09:38:08;;;;;;;8.05;4.93;;;;;;;31.93;45.97;101525.88;144994;603;5004;-80
2021/08/12 09:40:35;;;;;;;5.40;4.90;;;;;;;31.87;46.55;101524.34;144994;629;5004;-80
2021/08/12 09:43:04;;;;;;;6.65;4.72;;;;;;;31.75;46.02;101522.22;144993;621;5004;-81
2021/08/12 09:45:32;;;;;;;7.18;4.62;;;;;;;31.74;46.29;101518.69;144994;588;5002;-78
2021/08/12 09:48:18;;;;;;;6.15;4.80;;;;;;;31.76;46.13;101515.94;144994;620;5002;-80
2021/08/12 09:51:06;;;;;;;5.12;4.62;;;;;;;31.71;45.04;101516.13;144994;590;5002;-80
2021/08/12 09:53:34;;;;;;;7.55;5.10;;;;;;;31.73;46.09;101522.28;144994;695;5002;-81
2021/08/12 09:56:10;;;;;;;7.05;4.95;;;;;;;31.77;45.87;101518.53;144994;594;5002;-80
2021/08/12 09:58:38;;;;;;;6.87;5.00;;;;;;;31.68;45.39;101513.59;144994;574;5002;-79
2021/08/12 10:01:25;;;;;;;6.12;5.00;;;;;;;31.65;45.17;101511.91;144994;564;5002;-79
2021/08/12 10:03:53;;;;;;;5.65;4.53;;;;;;;31.47;46.18;101523.47;144994;625;5002;-79
2021/08/12 10:06:28;;;;;;;7.50;5.05;;;;;;;31.56;46.11;101519.53;144994;595;5002;-79
2021/08/12 10:08:54;;;;;;;5.82;4.90;;;;;;;31.37;45.38;101517.66;144994;567;5002;-80
2021/08/12 10:11:31;;;;;;;5.37;4.62;;;;;;;31.41;45.27;101515.72;144994;580;5002;-79
2021/08/12 10:14:01;;;;;;;5.45;4.70;;;;;;;31.63;45.69;101513.81;144994;743;5002;-80
2021/08/12 10:16:31;;;;;;;6.50;4.85;;;;;;;31.68;45.89;101516.28;144994;615;5002;-80
2021/08/12 10:18:59;;;;;;;5.80;4.70;;;;;;;31.72;45.17;101514.31;144994;617;5002;-82
2021/08/12 10:21:26;;;;;;;5.65;4.87;;;;;;;31.70;45.54;101521.56;144994;690;5002;-79
2021/08/12 10:24:15;;;;;;;6.12;4.78;;;;;;;31.74;45.62;101526.72;144994;579;5002;-81
2021/08/12 10:27:00;;;;;;;6.22;4.90;;;;;;;31.75;46.14;101517.75;144994;681;5002;-81
2021/08/12 10:29:28;;;;;;;6.72;5.10;;;;;;;31.60;47.04;101523.81;144994;566;5003;-80
2021/08/12 10:31:55;;;;;;;6.15;4.47;;;;;;;31.67;46.68;101517.22;144994;722;5002;-80
2021/08/12 10:34:23;;;;;;;7.15;4.90;;;;;;;31.69;46.77;101515.34;144994;646;5002;-80
2021/08/12 10:36:51;;;;;;;5.62;4.97;;;;;;;31.70;46.03;101502.78;144994;698;5003;-79
2021/08/12 10:39:21;;;;;;;6.12;4.72;;;;;;;31.73;46.55;101505.34;144994;754;5002;-79
2021/08/12 10:41:48;;;;;;;7.18;5.20;;;;;;;31.69;45.96;101501.94;144994;564;5002;-80
2021/08/12 10:44:19;;;;;;;9.00;5.25;;;;;;;31.64;46.82;101496.78;144994;653;5002;-80
2021/08/12 10:46:46;;;;;;;5.62;5.10;;;;;;;31.49;46.80;101497.44;144994;649;5002;-80
2021/08/12 10:49:32;;;;;;;9.52;4.82;;;;;;;31.58;46.31;101499.75;144994;705;5002;-78
2021/08/12 10:52:10;;;;;;;8.05;4.80;;;;;;;31.51;46.99;101498.22;144994;586;5002;-79
2021/08/12 10:54:41;;;;;;;5.12;4.57;;;;;;;31.60;46.13;101494.31;144994;653;5002;-80
2021/08/12 10:57:21;;;;;;;8.68;5.12;;;;;;;31.62;46.78;101501.31;144994;566;5002;-80
2021/08/12 10:59:49;;;;;;;6.80;4.60;;;;;;;31.63;47.52;101499.53;144994;665;5002;-80
2021/08/12 11:02:44;;;;;;;5.62;4.50;;;;;;;31.62;46.94;101497.78;144994;697;5002;-80
2021/08/12 11:05:11;;;;;;;5.45;4.50;;;;;;;31.74;46.32;101489.16;144994;669;4568;-78
2021/08/12 11:07:56;;;;;;;7.00;4.60;;;;;;;31.67;46.16;101485.00;144994;665;4572;-80
2021/08/12 11:10:23;;;;;;;7.57;5.12;;;;;;;31.70;46.63;101490.22;144994;629;4574;-79
2021/08/12 11:13:31;;;;;;;7.57;4.55;;;;;;;31.79;45.80;101483.56;144994;591;4575;-80
2021/08/12 11:15:58;;;;;;;5.47;4.53;;;;;;;31.69;45.79;101482.25;144992;576;6002;-80
2021/08/12 11:18:48;;;;;;;6.28;4.62;;;;;;;31.63;45.47;101492.34;144992;587;6002;-79
2021/08/12 11:21:53;;;;;;;7.07;4.57;;;;;;;31.44;46.45;101492.28;144992;736;6005;-79
2021/08/12 11:24:49;;;;;;;5.82;4.35;;;;;;;31.57;45.90;101491.75;144992;575;6002;-79
2021/08/12 11:27:34;;;;;;;5.93;4.50;;;;;;;31.38;45.74;101479.16;144992;717;6004;-80
2021/08/12 11:30:39;;;;;;;5.97;4.60;;;;;;;31.46;46.35;101485.03;144992;609;6004;-79
2021/08/12 11:33:25;;;;;;;5.22;4.70;;;;;;;31.60;46.03;101486.25;144992;588;6002;-80
2021/08/12 11:36:18;;;;;;;7.28;4.50;;;;;;;31.65;45.59;101484.22;144992;666;6002;-79
2021/08/12 11:38:49;;;;;;;6.65;4.62;;;;;;;31.57;45.89;101476.53;144992;569;6002;-79
2021/08/12 11:41:17;;;;;;;6.75;4.47;;;;;;;31.70;46.10;101482.19;144992;585;6002;-79
2021/08/12 11:43:44;;;;;;;6.97;4.90;;;;;;;31.64;46.21;101475.31;144992;599;6002;-80
2021/08/12 11:46:12;;;;;;;7.05;4.47;;;;;;;31.58;46.71;101477.41;144992;670;6002;-79